sensor_id;sensor_type;location;lat;lon;timestamp;P1;durP1;ratioP1;P2;durP2;ratioP2
50249;SDS011;36133;42.522;27.456;2023-03-01T00:01:46;0.15;;;0.15;;
50249;SDS011;36133;42.522;27.456;2023-03-01T00:04:11;0.55;;;0.55;;
50249;SDS011;36133;42.522;27.456;2023-03-01T00:06:37;0.10;;;0.10;;
50249;SDS011;36133;42.522;27.456;2023-03-01T00:09:03;0.20;;;0.20;;
50249;SDS011;36133;42.522;27.456;2023-03-01T00:11:29;0.30;;;0.30;;
50249;SDS011;36133;42.522;27.456;2023-03-01T00:13:57;0.40;;;0.40;;
50249;SDS011;36133;42.522;27.456;2023-03-01T00:18:53;0.25;;;0.25;;
50249;SDS011;36133;42.522;27.456;2023-03-01T00:21:19;0.28;;;0.28;;
50249;SDS011;36133;42.522;27.456;2023-03-01T00:23:45;0.25;;;0.25;;
50249;SDS011;36133;42.522;27.456;2023-03-01T00:26:14;0.20;;;0.20;;
50249;SDS011;36133;42.522;27.456;2023-03-01T00:28:41;0.43;;;0.43;;
50249;SDS011;36133;42.522;27.456;2023-03-01T00:31:12;0.65;;;0.60;;
50249;SDS011;36133;42.522;27.456;2023-03-01T00:33:39;0.30;;;0.30;;
50249;SDS011;36133;42.522;27.456;2023-03-01T00:36:05;0.10;;;0.10;;
50249;SDS011;36133;42.522;27.456;2023-03-01T00:38:42;0.10;;;0.10;;
50249;SDS011;36133;42.522;27.456;2023-03-01T00:41:10;1.13;;;0.75;;
50249;SDS011;36133;42.522;27.456;2023-03-01T00:43:37;0.13;;;0.13;;
50249;SDS011;36133;42.522;27.456;2023-03-01T00:46:04;0.93;;;0.85;;
50249;SDS011;36133;42.522;27.456;2023-03-01T00:51:34;0.22;;;0.22;;
50249;SDS011;36133;42.522;27.456;2023-03-01T00:54:00;0.10;;;0.10;;
50249;SDS011;36133;42.522;27.456;2023-03-01T00:56:27;2.63;;;1.27;;
50249;SDS011;36133;42.522;27.456;2023-03-01T00:58:53;0.10;;;0.10;;
50249;SDS011;36133;42.522;27.456;2023-03-01T01:01:19;0.15;;;0.15;;
50249;SDS011;36133;42.522;27.456;2023-03-01T01:04:06;0.35;;;0.35;;
50249;SDS011;36133;42.522;27.456;2023-03-01T01:06:35;0.30;;;0.30;;
50249;SDS011;36133;42.522;27.456;2023-03-01T01:09:03;0.20;;;0.20;;
50249;SDS011;36133;42.522;27.456;2023-03-01T01:11:30;0.30;;;0.30;;
50249;SDS011;36133;42.522;27.456;2023-03-01T01:13:56;0.30;;;0.30;;
50249;SDS011;36133;42.522;27.456;2023-03-01T01:16:23;0.82;;;0.63;;
50249;SDS011;36133;42.522;27.456;2023-03-01T01:18:50;0.30;;;0.30;;
50249;SDS011;36133;42.522;27.456;2023-03-01T01:21:17;0.10;;;0.10;;
50249;SDS011;36133;42.522;27.456;2023-03-01T01:23:45;0.17;;;0.17;;
50249;SDS011;36133;42.522;27.456;2023-03-01T01:26:14;0.10;;;0.10;;
50249;SDS011;36133;42.522;27.456;2023-03-01T01:28:42;0.20;;;0.20;;
50249;SDS011;36133;42.522;27.456;2023-03-01T01:31:07;17.08;;;1.20;;
50249;SDS011;36133;42.522;27.456;2023-03-01T01:33:33;0.10;;;0.10;;
50249;SDS011;36133;42.522;27.456;2023-03-01T01:35:59;0.20;;;0.20;;
50249;SDS011;36133;42.522;27.456;2023-03-01T01:38:25;0.20;;;0.20;;
50249;SDS011;36133;42.522;27.456;2023-03-01T01:40:50;0.22;;;0.22;;
50249;SDS011;36133;42.522;27.456;2023-03-01T01:43:18;0.20;;;0.20;;
50249;SDS011;36133;42.522;27.456;2023-03-01T01:45:47;1.15;;;1.10;;
50249;SDS011;36133;42.522;27.456;2023-03-01T01:48:15;0.15;;;0.15;;
50249;SDS011;36133;42.522;27.456;2023-03-01T01:50:43;0.20;;;0.20;;
50249;SDS011;36133;42.522;27.456;2023-03-01T01:53:12;0.20;;;0.20;;
50249;SDS011;36133;42.522;27.456;2023-03-01T01:55:43;0.10;;;0.10;;
50249;SDS011;36133;42.522;27.456;2023-03-01T01:58:13;0.10;;;0.10;;
50249;SDS011;36133;42.522;27.456;2023-03-01T02:00:42;0.55;;;0.55;;
50249;SDS011;36133;42.522;27.456;2023-03-01T02:03:10;0.20;;;0.20;;
50249;SDS011;36133;42.522;27.456;2023-03-01T02:08:11;0.20;;;0.20;;
50249;SDS011;36133;42.522;27.456;2023-03-01T02:10:38;0.20;;;0.20;;
50249;SDS011;36133;42.522;27.456;2023-03-01T02:13:05;0.10;;;0.10;;
50249;SDS011;36133;42.522;27.456;2023-03-01T02:15:35;3.00;;;1.27;;
50249;SDS011;36133;42.522;27.456;2023-03-01T02:18:02;0.20;;;0.20;;
50249;SDS011;36133;42.522;27.456;2023-03-01T02:20:38;0.10;;;0.10;;
50249;SDS011;36133;42.522;27.456;2023-03-01T02:23:12;0.25;;;0.25;;
50249;SDS011;36133;42.522;27.456;2023-03-01T02:30:42;0.25;;;0.25;;
50249;SDS011;36133;42.522;27.456;2023-03-01T02:33:28;0.32;;;0.32;;
50249;SDS011;36133;42.522;27.456;2023-03-01T02:36:01;0.50;;;0.50;;
50249;SDS011;36133;42.522;27.456;2023-03-01T02:38:30;0.15;;;0.15;;
50249;SDS011;36133;42.522;27.456;2023-03-01T02:40:56;0.30;;;0.30;;
50249;SDS011;36133;42.522;27.456;2023-03-01T02:43:24;0.30;;;0.30;;
50249;SDS011;36133;42.522;27.456;2023-03-01T02:45:56;0.38;;;0.38;;
50249;SDS011;36133;42.522;27.456;2023-03-01T02:48:23;0.50;;;0.50;;
50249;SDS011;36133;42.522;27.456;2023-03-01T02:51:06;0.10;;;0.10;;
50249;SDS011;36133;42.522;27.456;2023-03-01T02:56:12;0.20;;;0.20;;
50249;SDS011;36133;42.522;27.456;2023-03-01T02:58:41;0.30;;;0.30;;
50249;SDS011;36133;42.522;27.456;2023-03-01T03:01:16;0.30;;;0.30;;
50249;SDS011;36133;42.522;27.456;2023-03-01T03:03:42;0.10;;;0.10;;
50249;SDS011;36133;42.522;27.456;2023-03-01T03:06:08;0.20;;;0.20;;
50249;SDS011;36133;42.522;27.456;2023-03-01T03:08:34;0.40;;;0.40;;
50249;SDS011;36133;42.522;27.456;2023-03-01T03:11:00;0.10;;;0.10;;
50249;SDS011;36133;42.522;27.456;2023-03-01T03:13:25;0.10;;;0.10;;
50249;SDS011;36133;42.522;27.456;2023-03-01T03:15:54;0.20;;;0.20;;
50249;SDS011;36133;42.522;27.456;2023-03-01T03:18:21;0.17;;;0.17;;
50249;SDS011;36133;42.522;27.456;2023-03-01T03:20:47;0.85;;;0.63;;
50249;SDS011;36133;42.522;27.456;2023-03-01T03:23:18;0.50;;;0.50;;
50249;SDS011;36133;42.522;27.456;2023-03-01T03:25:50;0.85;;;0.75;;
50249;SDS011;36133;42.522;27.456;2023-03-01T03:28:16;0.10;;;0.10;;
50249;SDS011;36133;42.522;27.456;2023-03-01T03:30:42;0.28;;;0.28;;
50249;SDS011;36133;42.522;27.456;2023-03-01T03:33:08;0.10;;;0.10;;
50249;SDS011;36133;42.522;27.456;2023-03-01T03:35:53;0.15;;;0.15;;
50249;SDS011;36133;42.522;27.456;2023-03-01T03:38:19;0.15;;;0.15;;
50249;SDS011;36133;42.522;27.456;2023-03-01T03:41:00;0.10;;;0.10;;
50249;SDS011;36133;42.522;27.456;2023-03-01T03:46:13;0.10;;;0.10;;
50249;SDS011;36133;42.522;27.456;2023-03-01T03:48:57;0.20;;;0.20;;
50249;SDS011;36133;42.522;27.456;2023-03-01T03:51:23;0.10;;;0.10;;
50249;SDS011;36133;42.522;27.456;2023-03-01T03:53:48;0.10;;;0.10;;
50249;SDS011;36133;42.522;27.456;2023-03-01T03:56:14;2.10;;;0.82;;
50249;SDS011;36133;42.522;27.456;2023-03-01T03:59:17;0.10;;;0.10;;
50249;SDS011;36133;42.522;27.456;2023-03-01T04:04:47;0.10;;;0.10;;
50249;SDS011;36133;42.522;27.456;2023-03-01T04:07:15;0.22;;;0.22;;
50249;SDS011;36133;42.522;27.456;2023-03-01T04:09:41;1.45;;;1.00;;
50249;SDS011;36133;42.522;27.456;2023-03-01T04:12:07;0.20;;;0.20;;
50249;SDS011;36133;42.522;27.456;2023-03-01T04:14:34;0.10;;;0.10;;
50249;SDS011;36133;42.522;27.456;2023-03-01T04:16:59;0.20;;;0.20;;
50249;SDS011;36133;42.522;27.456;2023-03-01T04:19:26;0.75;;;0.75;;
50249;SDS011;36133;42.522;27.456;2023-03-01T04:21:52;0.10;;;0.10;;
50249;SDS011;36133;42.522;27.456;2023-03-01T04:24:18;0.20;;;0.20;;
50249;SDS011;36133;42.522;27.456;2023-03-01T04:26:43;0.10;;;0.10;;
50249;SDS011;36133;42.522;27.456;2023-03-01T04:29:09;0.25;;;0.25;;
50249;SDS011;36133;42.522;27.456;2023-03-01T04:31:35;0.50;;;0.50;;
50249;SDS011;36133;42.522;27.456;2023-03-01T04:34:01;2.55;;;1.65;;
50249;SDS011;36133;42.522;27.456;2023-03-01T04:36:27;0.28;;;0.28;;
50249;SDS011;36133;42.522;27.456;2023-03-01T04:38:54;0.40;;;0.40;;
50249;SDS011;36133;42.522;27.456;2023-03-01T04:41:21;0.15;;;0.15;;
50249;SDS011;36133;42.522;27.456;2023-03-01T04:43:48;0.20;;;0.20;;
50249;SDS011;36133;42.522;27.456;2023-03-01T04:46:14;0.20;;;0.20;;
50249;SDS011;36133;42.522;27.456;2023-03-01T04:48:42;0.20;;;0.20;;
50249;SDS011;36133;42.522;27.456;2023-03-01T04:51:09;0.60;;;0.60;;
50249;SDS011;36133;42.522;27.456;2023-03-01T04:53:38;0.20;;;0.20;;
50249;SDS011;36133;42.522;27.456;2023-03-01T04:56:05;5.18;;;2.38;;
50249;SDS011;36133;42.522;27.456;2023-03-01T04:58:31;0.15;;;0.15;;
50249;SDS011;36133;42.522;27.456;2023-03-01T05:00:57;0.13;;;0.13;;
50249;SDS011;36133;42.522;27.456;2023-03-01T05:03:23;0.32;;;0.32;;
50249;SDS011;36133;42.522;27.456;2023-03-01T05:05:50;0.20;;;0.20;;
50249;SDS011;36133;42.522;27.456;2023-03-01T05:08:16;0.20;;;0.20;;
50249;SDS011;36133;42.522;27.456;2023-03-01T05:10:47;0.20;;;0.20;;
50249;SDS011;36133;42.522;27.456;2023-03-01T05:13:16;0.30;;;0.30;;
50249;SDS011;36133;42.522;27.456;2023-03-01T05:15:59;0.20;;;0.20;;
50249;SDS011;36133;42.522;27.456;2023-03-01T05:18:26;0.20;;;0.20;;
50249;SDS011;36133;42.522;27.456;2023-03-01T05:20:53;0.20;;;0.20;;
50249;SDS011;36133;42.522;27.456;2023-03-01T05:23:21;0.75;;;0.75;;
50249;SDS011;36133;42.522;27.456;2023-03-01T05:25:47;0.57;;;0.57;;
50249;SDS011;36133;42.522;27.456;2023-03-01T05:28:14;1.40;;;0.63;;
50249;SDS011;36133;42.522;27.456;2023-03-01T05:30:40;3.83;;;1.80;;
50249;SDS011;36133;42.522;27.456;2023-03-01T05:33:06;1.73;;;1.27;;
50249;SDS011;36133;42.522;27.456;2023-03-01T05:35:41;0.10;;;0.10;;
50249;SDS011;36133;42.522;27.456;2023-03-01T05:38:08;0.47;;;0.40;;
50249;SDS011;36133;42.522;27.456;2023-03-01T05:40:38;1.00;;;1.00;;
50249;SDS011;36133;42.522;27.456;2023-03-01T05:43:04;0.20;;;0.20;;
50249;SDS011;36133;42.522;27.456;2023-03-01T05:45:30;0.10;;;0.10;;
50249;SDS011;36133;42.522;27.456;2023-03-01T05:47:57;0.10;;;0.10;;
50249;SDS011;36133;42.522;27.456;2023-03-01T05:50:28;0.20;;;0.20;;
50249;SDS011;36133;42.522;27.456;2023-03-01T05:52:59;0.30;;;0.30;;
50249;SDS011;36133;42.522;27.456;2023-03-01T05:55:28;0.10;;;0.10;;
50249;SDS011;36133;42.522;27.456;2023-03-01T05:57:58;0.22;;;0.22;;
50249;SDS011;36133;42.522;27.456;2023-03-01T06:00:25;26.92;;;15.73;;
50249;SDS011;36133;42.522;27.456;2023-03-01T06:02:50;28.38;;;15.43;;
50249;SDS011;36133;42.522;27.456;2023-03-01T06:05:19;31.23;;;15.27;;
50249;SDS011;36133;42.522;27.456;2023-03-01T06:07:44;30.42;;;14.50;;
50249;SDS011;36133;42.522;27.456;2023-03-01T06:10:10;30.50;;;16.02;;
50249;SDS011;36133;42.522;27.456;2023-03-01T06:12:37;24.50;;;13.82;;
50249;SDS011;36133;42.522;27.456;2023-03-01T06:15:04;28.52;;;14.73;;
50249;SDS011;36133;42.522;27.456;2023-03-01T06:17:32;25.48;;;14.18;;
50249;SDS011;36133;42.522;27.456;2023-03-01T06:20:03;23.45;;;13.20;;
50249;SDS011;36133;42.522;27.456;2023-03-01T06:22:33;26.65;;;14.35;;
50249;SDS011;36133;42.522;27.456;2023-03-01T06:24:59;27.88;;;14.15;;
50249;SDS011;36133;42.522;27.456;2023-03-01T06:27:24;26.92;;;14.68;;
50249;SDS011;36133;42.522;27.456;2023-03-01T06:29:50;19.75;;;12.25;;
50249;SDS011;36133;42.522;27.456;2023-03-01T06:32:16;20.58;;;11.68;;
50249;SDS011;36133;42.522;27.456;2023-03-01T06:34:41;22.98;;;13.07;;
50249;SDS011;36133;42.522;27.456;2023-03-01T06:37:07;29.23;;;14.13;;
50249;SDS011;36133;42.522;27.456;2023-03-01T06:39:32;27.70;;;14.02;;
50249;SDS011;36133;42.522;27.456;2023-03-01T06:41:58;20.52;;;12.65;;
50249;SDS011;36133;42.522;27.456;2023-03-01T06:44:24;21.75;;;13.43;;
50249;SDS011;36133;42.522;27.456;2023-03-01T06:46:49;22.65;;;13.15;;
50249;SDS011;36133;42.522;27.456;2023-03-01T06:49:15;27.17;;;13.77;;
50249;SDS011;36133;42.522;27.456;2023-03-01T06:51:42;20.02;;;13.18;;
50249;SDS011;36133;42.522;27.456;2023-03-01T06:54:08;28.15;;;12.45;;
50249;SDS011;36133;42.522;27.456;2023-03-01T06:56:34;23.02;;;12.93;;
50249;SDS011;36133;42.522;27.456;2023-03-01T06:59:00;24.27;;;13.48;;
50249;SDS011;36133;42.522;27.456;2023-03-01T07:01:27;22.88;;;12.55;;
50249;SDS011;36133;42.522;27.456;2023-03-01T07:03:53;20.77;;;12.20;;
50249;SDS011;36133;42.522;27.456;2023-03-01T07:06:19;20.48;;;12.25;;
50249;SDS011;36133;42.522;27.456;2023-03-01T07:08:44;21.67;;;11.95;;
50249;SDS011;36133;42.522;27.456;2023-03-01T07:11:10;18.63;;;11.50;;
50249;SDS011;36133;42.522;27.456;2023-03-01T07:13:35;19.25;;;11.23;;
50249;SDS011;36133;42.522;27.456;2023-03-01T07:16:01;18.25;;;10.57;;
50249;SDS011;36133;42.522;27.456;2023-03-01T07:18:26;17.65;;;10.57;;
50249;SDS011;36133;42.522;27.456;2023-03-01T07:20:52;21.50;;;11.10;;
50249;SDS011;36133;42.522;27.456;2023-03-01T07:23:18;25.60;;;10.50;;
50249;SDS011;36133;42.522;27.456;2023-03-01T07:25:43;20.65;;;11.50;;
50249;SDS011;36133;42.522;27.456;2023-03-01T07:28:09;18.08;;;10.80;;
50249;SDS011;36133;42.522;27.456;2023-03-01T07:30:34;21.20;;;11.82;;
50249;SDS011;36133;42.522;27.456;2023-03-01T07:33:00;19.02;;;11.60;;
50249;SDS011;36133;42.522;27.456;2023-03-01T07:35:26;20.30;;;11.02;;
50249;SDS011;36133;42.522;27.456;2023-03-01T07:37:52;23.52;;;11.25;;
50249;SDS011;36133;42.522;27.456;2023-03-01T07:40:18;20.67;;;11.32;;
50249;SDS011;36133;42.522;27.456;2023-03-01T07:42:43;20.58;;;11.02;;
50249;SDS011;36133;42.522;27.456;2023-03-01T07:45:09;17.05;;;10.40;;
50249;SDS011;36133;42.522;27.456;2023-03-01T07:47:35;21.85;;;10.38;;
50249;SDS011;36133;42.522;27.456;2023-03-01T07:50:01;19.70;;;11.02;;
50249;SDS011;36133;42.522;27.456;2023-03-01T07:52:28;18.88;;;11.88;;
50249;SDS011;36133;42.522;27.456;2023-03-01T07:54:53;25.48;;;11.98;;
50249;SDS011;36133;42.522;27.456;2023-03-01T07:57:19;19.10;;;11.20;;
50249;SDS011;36133;42.522;27.456;2023-03-01T07:59:44;20.77;;;11.75;;
50249;SDS011;36133;42.522;27.456;2023-03-01T08:02:10;19.83;;;11.38;;
50249;SDS011;36133;42.522;27.456;2023-03-01T08:04:36;19.60;;;11.52;;
50249;SDS011;36133;42.522;27.456;2023-03-01T08:07:04;25.23;;;11.25;;
50249;SDS011;36133;42.522;27.456;2023-03-01T08:09:30;23.45;;;11.70;;
50249;SDS011;36133;42.522;27.456;2023-03-01T08:11:56;19.67;;;11.40;;
50249;SDS011;36133;42.522;27.456;2023-03-01T08:14:25;21.27;;;10.55;;
50249;SDS011;36133;42.522;27.456;2023-03-01T08:16:51;20.65;;;10.82;;
50249;SDS011;36133;42.522;27.456;2023-03-01T08:19:16;19.48;;;10.55;;
50249;SDS011;36133;42.522;27.456;2023-03-01T08:21:42;15.02;;;9.80;;
50249;SDS011;36133;42.522;27.456;2023-03-01T08:24:08;16.45;;;9.55;;
50249;SDS011;36133;42.522;27.456;2023-03-01T08:26:35;23.50;;;10.85;;
50249;SDS011;36133;42.522;27.456;2023-03-01T08:29:01;17.38;;;11.10;;
50249;SDS011;36133;42.522;27.456;2023-03-01T08:31:29;20.02;;;11.40;;
50249;SDS011;36133;42.522;27.456;2023-03-01T08:34:01;18.17;;;9.90;;
50249;SDS011;36133;42.522;27.456;2023-03-01T08:36:31;19.60;;;10.32;;
50249;SDS011;36133;42.522;27.456;2023-03-01T08:39:00;19.20;;;11.07;;
50249;SDS011;36133;42.522;27.456;2023-03-01T08:41:27;18.33;;;10.27;;
50249;SDS011;36133;42.522;27.456;2023-03-01T08:43:52;18.35;;;10.43;;
50249;SDS011;36133;42.522;27.456;2023-03-01T08:46:23;19.55;;;11.75;;
50249;SDS011;36133;42.522;27.456;2023-03-01T08:48:50;19.08;;;10.35;;
50249;SDS011;36133;42.522;27.456;2023-03-01T08:51:17;17.42;;;10.80;;
50249;SDS011;36133;42.522;27.456;2023-03-01T08:53:44;21.55;;;10.77;;
50249;SDS011;36133;42.522;27.456;2023-03-01T08:56:10;23.90;;;10.57;;
50249;SDS011;36133;42.522;27.456;2023-03-01T08:58:36;16.80;;;10.05;;
50249;SDS011;36133;42.522;27.456;2023-03-01T09:01:09;21.83;;;10.98;;
50249;SDS011;36133;42.522;27.456;2023-03-01T09:03:36;20.17;;;11.30;;
50249;SDS011;36133;42.522;27.456;2023-03-01T09:06:02;26.85;;;11.00;;
50249;SDS011;36133;42.522;27.456;2023-03-01T09:08:30;21.30;;;11.80;;
50249;SDS011;36133;42.522;27.456;2023-03-01T09:10:56;24.27;;;11.00;;
50249;SDS011;36133;42.522;27.456;2023-03-01T09:13:21;17.30;;;10.63;;
50249;SDS011;36133;42.522;27.456;2023-03-01T09:15:52;25.40;;;11.00;;
50249;SDS011;36133;42.522;27.456;2023-03-01T09:18:19;20.67;;;11.35;;
50249;SDS011;36133;42.522;27.456;2023-03-01T09:20:44;21.08;;;11.45;;
50249;SDS011;36133;42.522;27.456;2023-03-01T09:23:10;23.08;;;12.50;;
50249;SDS011;36133;42.522;27.456;2023-03-01T09:25:35;26.95;;;12.35;;
50249;SDS011;36133;42.522;27.456;2023-03-01T09:28:01;25.65;;;12.20;;
50249;SDS011;36133;42.522;27.456;2023-03-01T09:30:26;20.67;;;11.50;;
50249;SDS011;36133;42.522;27.456;2023-03-01T09:32:52;24.15;;;11.88;;
50249;SDS011;36133;42.522;27.456;2023-03-01T09:35:18;31.33;;;12.52;;
50249;SDS011;36133;42.522;27.456;2023-03-01T09:37:45;28.77;;;13.82;;
50249;SDS011;36133;42.522;27.456;2023-03-01T09:40:15;22.48;;;12.77;;
50249;SDS011;36133;42.522;27.456;2023-03-01T09:42:53;30.90;;;13.25;;
50249;SDS011;36133;42.522;27.456;2023-03-01T09:45:27;28.50;;;12.93;;
50249;SDS011;36133;42.522;27.456;2023-03-01T09:47:57;23.98;;;13.43;;
50249;SDS011;36133;42.522;27.456;2023-03-01T09:50:23;26.65;;;13.05;;
50249;SDS011;36133;42.522;27.456;2023-03-01T09:55:43;22.70;;;13.25;;
50249;SDS011;36133;42.522;27.456;2023-03-01T10:01:02;21.35;;;11.38;;
50249;SDS011;36133;42.522;27.456;2023-03-01T10:04:03;23.10;;;12.80;;
50249;SDS011;36133;42.522;27.456;2023-03-01T10:06:56;30.92;;;14.52;;
50249;SDS011;36133;42.522;27.456;2023-03-01T10:09:32;29.23;;;13.90;;
50249;SDS011;36133;42.522;27.456;2023-03-01T10:12:00;28.65;;;14.50;;
50249;SDS011;36133;42.522;27.456;2023-03-01T10:17:43;27.20;;;14.07;;
50249;SDS011;36133;42.522;27.456;2023-03-01T10:20:15;27.58;;;13.15;;
50249;SDS011;36133;42.522;27.456;2023-03-01T10:22:46;25.15;;;13.20;;
50249;SDS011;36133;42.522;27.456;2023-03-01T10:25:16;29.13;;;14.88;;
50249;SDS011;36133;42.522;27.456;2023-03-01T10:27:59;34.00;;;13.75;;
50249;SDS011;36133;42.522;27.456;2023-03-01T10:30:34;26.55;;;13.75;;
50249;SDS011;36133;42.522;27.456;2023-03-01T10:33:25;28.98;;;13.68;;
50249;SDS011;36133;42.522;27.456;2023-03-01T10:35:54;26.63;;;14.15;;
50249;SDS011;36133;42.522;27.456;2023-03-01T10:38:20;34.22;;;15.13;;
50249;SDS011;36133;42.522;27.456;2023-03-01T10:40:51;25.20;;;12.57;;
50249;SDS011;36133;42.522;27.456;2023-03-01T10:43:22;27.90;;;14.82;;
50249;SDS011;36133;42.522;27.456;2023-03-01T10:45:52;23.15;;;13.02;;
50249;SDS011;36133;42.522;27.456;2023-03-01T10:48:22;25.55;;;13.77;;
50249;SDS011;36133;42.522;27.456;2023-03-01T10:55:59;23.50;;;13.43;;
50249;SDS011;36133;42.522;27.456;2023-03-01T10:58:27;25.13;;;14.20;;
50249;SDS011;36133;42.522;27.456;2023-03-01T11:00:54;24.42;;;13.52;;
50249;SDS011;36133;42.522;27.456;2023-03-01T11:03:23;35.50;;;15.05;;
50249;SDS011;36133;42.522;27.456;2023-03-01T11:05:56;24.45;;;13.98;;
50249;SDS011;36133;42.522;27.456;2023-03-01T11:08:30;28.53;;;14.60;;
50249;SDS011;36133;42.522;27.456;2023-03-01T11:11:03;27.67;;;14.65;;
50249;SDS011;36133;42.522;27.456;2023-03-01T11:13:47;26.20;;;15.23;;
50249;SDS011;36133;42.522;27.456;2023-03-01T11:16:22;31.25;;;16.15;;
50249;SDS011;36133;42.522;27.456;2023-03-01T11:19:00;30.83;;;14.48;;
50249;SDS011;36133;42.522;27.456;2023-03-01T11:21:39;27.27;;;14.95;;
50249;SDS011;36133;42.522;27.456;2023-03-01T11:24:06;37.00;;;15.70;;
50249;SDS011;36133;42.522;27.456;2023-03-01T11:26:39;28.55;;;15.60;;
50249;SDS011;36133;42.522;27.456;2023-03-01T11:29:13;29.73;;;17.00;;
50249;SDS011;36133;42.522;27.456;2023-03-01T11:31:46;30.33;;;17.27;;
50249;SDS011;36133;42.522;27.456;2023-03-01T11:34:20;34.63;;;17.52;;
50249;SDS011;36133;42.522;27.456;2023-03-01T11:36:58;35.72;;;18.80;;
50249;SDS011;36133;42.522;27.456;2023-03-01T11:39:44;32.45;;;17.52;;
50249;SDS011;36133;42.522;27.456;2023-03-01T11:51:02;35.97;;;20.37;;
50249;SDS011;36133;42.522;27.456;2023-03-01T11:59:13;32.72;;;18.83;;
50249;SDS011;36133;42.522;27.456;2023-03-01T12:02:12;35.92;;;19.92;;
50249;SDS011;36133;42.522;27.456;2023-03-01T12:05:06;35.45;;;19.48;;
50249;SDS011;36133;42.522;27.456;2023-03-01T12:07:51;29.67;;;17.40;;
50249;SDS011;36133;42.522;27.456;2023-03-01T12:10:33;31.95;;;17.60;;
50249;SDS011;36133;42.522;27.456;2023-03-01T12:13:58;33.30;;;17.02;;
50249;SDS011;36133;42.522;27.456;2023-03-01T12:16:28;28.73;;;16.15;;
50249;SDS011;36133;42.522;27.456;2023-03-01T12:22:13;32.92;;;18.35;;
50249;SDS011;36133;42.522;27.456;2023-03-01T12:33:22;25.30;;;13.40;;
50249;SDS011;36133;42.522;27.456;2023-03-01T12:38:37;25.95;;;10.75;;
50249;SDS011;36133;42.522;27.456;2023-03-01T12:49:50;20.05;;;10.32;;
50249;SDS011;36133;42.522;27.456;2023-03-01T12:52:35;18.23;;;9.02;;
50249;SDS011;36133;42.522;27.456;2023-03-01T12:55:08;17.42;;;9.45;;
50249;SDS011;36133;42.522;27.456;2023-03-01T12:57:47;17.63;;;8.65;;
50249;SDS011;36133;42.522;27.456;2023-03-01T13:13:39;22.13;;;11.57;;
50249;SDS011;36133;42.522;27.456;2023-03-01T13:21:47;20.50;;;12.43;;
50249;SDS011;36133;42.522;27.456;2023-03-01T13:32:26;28.85;;;13.55;;
50249;SDS011;36133;42.522;27.456;2023-03-01T13:34:59;26.90;;;13.32;;
50249;SDS011;36133;42.522;27.456;2023-03-01T13:37:45;28.33;;;14.45;;
50249;SDS011;36133;42.522;27.456;2023-03-01T13:42:45;22.77;;;13.30;;
50249;SDS011;36133;42.522;27.456;2023-03-01T13:47:43;35.00;;;14.93;;
50249;SDS011;36133;42.522;27.456;2023-03-01T13:50:20;25.00;;;13.57;;
50249;SDS011;36133;42.522;27.456;2023-03-01T13:53:02;29.02;;;13.23;;
50249;SDS011;36133;42.522;27.456;2023-03-01T13:58:19;22.95;;;11.27;;
50249;SDS011;36133;42.522;27.456;2023-03-01T14:00:58;25.38;;;12.38;;
50249;SDS011;36133;42.522;27.456;2023-03-01T14:03:25;27.77;;;12.65;;
50249;SDS011;36133;42.522;27.456;2023-03-01T14:05:59;21.83;;;11.48;;
50249;SDS011;36133;42.522;27.456;2023-03-01T14:08:34;21.60;;;10.70;;
50249;SDS011;36133;42.522;27.456;2023-03-01T14:20:00;19.83;;;10.18;;
50249;SDS011;36133;42.522;27.456;2023-03-01T14:22:34;31.08;;;11.82;;
50249;SDS011;36133;42.522;27.456;2023-03-01T14:25:03;21.10;;;10.85;;
50249;SDS011;36133;42.522;27.456;2023-03-01T14:30:41;21.55;;;11.55;;
50249;SDS011;36133;42.522;27.456;2023-03-01T14:33:30;23.30;;;10.07;;
50249;SDS011;36133;42.522;27.456;2023-03-01T14:35:59;18.67;;;9.82;;
50249;SDS011;36133;42.522;27.456;2023-03-01T14:38:37;23.08;;;10.07;;
50249;SDS011;36133;42.522;27.456;2023-03-01T14:44:23;20.83;;;10.18;;
50249;SDS011;36133;42.522;27.456;2023-03-01T14:46:44;20.20;;;9.27;;
50249;SDS011;36133;42.522;27.456;2023-03-01T14:49:11;22.85;;;9.55;;
50249;SDS011;36133;42.522;27.456;2023-03-01T14:51:43;18.65;;;9.18;;
50249;SDS011;36133;42.522;27.456;2023-03-01T14:54:21;19.42;;;9.35;;
50249;SDS011;36133;42.522;27.456;2023-03-01T14:56:50;26.95;;;10.18;;
50249;SDS011;36133;42.522;27.456;2023-03-01T14:59:19;16.67;;;8.63;;
50249;SDS011;36133;42.522;27.456;2023-03-01T15:01:48;28.27;;;10.52;;
50249;SDS011;36133;42.522;27.456;2023-03-01T15:04:15;20.58;;;9.52;;
50249;SDS011;36133;42.522;27.456;2023-03-01T15:06:45;24.52;;;10.20;;
50249;SDS011;36133;42.522;27.456;2023-03-01T15:09:14;19.13;;;8.90;;
50249;SDS011;36133;42.522;27.456;2023-03-01T15:11:42;18.83;;;9.48;;
50249;SDS011;36133;42.522;27.456;2023-03-01T15:19:59;22.55;;;9.38;;
50249;SDS011;36133;42.522;27.456;2023-03-01T15:22:27;18.20;;;8.55;;
50249;SDS011;36133;42.522;27.456;2023-03-01T15:24:53;20.73;;;9.60;;
50249;SDS011;36133;42.522;27.456;2023-03-01T15:27:20;24.65;;;10.88;;
50249;SDS011;36133;42.522;27.456;2023-03-01T15:30:21;21.52;;;9.10;;
50249;SDS011;36133;42.522;27.456;2023-03-01T15:35:58;22.23;;;9.27;;
50249;SDS011;36133;42.522;27.456;2023-03-01T15:38:26;19.50;;;9.02;;
50249;SDS011;36133;42.522;27.456;2023-03-01T15:40:55;15.23;;;7.82;;
50249;SDS011;36133;42.522;27.456;2023-03-01T15:43:38;17.27;;;8.55;;
50249;SDS011;36133;42.522;27.456;2023-03-01T15:46:18;14.73;;;8.30;;
50249;SDS011;36133;42.522;27.456;2023-03-01T15:48:48;16.58;;;8.57;;
50249;SDS011;36133;42.522;27.456;2023-03-01T15:51:22;23.40;;;8.43;;
50249;SDS011;36133;42.522;27.456;2023-03-01T15:53:53;17.52;;;8.50;;
50249;SDS011;36133;42.522;27.456;2023-03-01T15:56:19;18.02;;;8.43;;
50249;SDS011;36133;42.522;27.456;2023-03-01T15:58:45;18.73;;;9.05;;
50249;SDS011;36133;42.522;27.456;2023-03-01T16:01:14;19.38;;;7.72;;
50249;SDS011;36133;42.522;27.456;2023-03-01T16:03:42;23.70;;;7.57;;
50249;SDS011;36133;42.522;27.456;2023-03-01T16:06:10;17.55;;;8.48;;
50249;SDS011;36133;42.522;27.456;2023-03-01T16:08:36;16.80;;;8.68;;
50249;SDS011;36133;42.522;27.456;2023-03-01T16:11:04;20.85;;;9.05;;
50249;SDS011;36133;42.522;27.456;2023-03-01T16:13:35;14.75;;;7.68;;
50249;SDS011;36133;42.522;27.456;2023-03-01T16:16:01;15.57;;;8.18;;
50249;SDS011;36133;42.522;27.456;2023-03-01T16:18:27;16.20;;;8.70;;
50249;SDS011;36133;42.522;27.456;2023-03-01T16:20:52;17.30;;;8.60;;
50249;SDS011;36133;42.522;27.456;2023-03-01T16:23:19;16.25;;;8.38;;
50249;SDS011;36133;42.522;27.456;2023-03-01T16:25:44;14.48;;;7.47;;
50249;SDS011;36133;42.522;27.456;2023-03-01T16:28:10;16.63;;;8.05;;
50249;SDS011;36133;42.522;27.456;2023-03-01T16:30:36;17.75;;;7.53;;
50249;SDS011;36133;42.522;27.456;2023-03-01T16:33:04;16.33;;;7.25;;
50249;SDS011;36133;42.522;27.456;2023-03-01T16:35:33;12.23;;;6.65;;
50249;SDS011;36133;42.522;27.456;2023-03-01T16:38:04;11.90;;;7.32;;
50249;SDS011;36133;42.522;27.456;2023-03-01T16:40:29;18.52;;;7.75;;
50249;SDS011;36133;42.522;27.456;2023-03-01T16:42:55;13.68;;;6.43;;
50249;SDS011;36133;42.522;27.456;2023-03-01T16:45:35;14.55;;;6.57;;
50249;SDS011;36133;42.522;27.456;2023-03-01T16:48:01;16.95;;;7.15;;